Aviation Digital Data Service (ADDS)

Output produced by METARs form (1827 UTC 22 November 2017)
found at http://www.aviationweather.gov/adds/metars/
 
TAF TDPD 221700Z 2218/2318 09010KT 9999 SCT018 
     TEMPO 2221/2309 5000 SHRA BKN015 BKN038